Time;durP1;ratioP1;P1;durP2;ratioP2;P2;SDS_P1;SDS_P2;PMS_P1;PMS_P2;Temp;Humidity;BMP_temperature;BMP_pressure;BME280_temperature;BME280_humidity;BME280_pressure;Samples;Min_cycle;Max_cycle;Signal;HPM_P1;HPM_P2
2022/06/05 00:00:15;;;;;;;5.85;4.93;;;22.60;64.40;;;;;;4974852;28;20110;-68
2022/06/05 00:03:16;;;;;;;5.10;4.63;;;22.70;64.50;;;;;;4958843;28;20027;-68
2022/06/05 00:06:02;;;;;;;5.10;4.60;;;22.70;64.50;;;;;;4974626;28;20047;-68
2022/06/05 00:08:41;;;;;;;5.53;5.00;;;22.70;64.60;;;;;;4973969;28;20054;-68
2022/06/05 00:11:07;;;;;;;4.82;4.43;;;22.60;64.60;;;;;;4973829;28;20023;-68
2022/06/05 00:13:36;;;;;;;5.07;4.57;;;22.60;64.60;;;;;;4957494;28;20025;-68
2022/06/05 00:16:02;;;;;;;6.03;4.60;;;22.60;64.70;;;;;;4974640;28;20034;-68
2022/06/05 00:18:30;;;;;;;5.35;4.85;;;22.60;64.70;;;;;;4974866;28;20386;-68
2022/06/05 00:20:56;;;;;;;4.55;4.15;;;22.60;64.70;;;;;;4973356;28;20054;-68
2022/06/05 00:23:22;;;;;;;4.82;4.40;;;22.60;64.70;;;;;;4974584;28;20030;-68
2022/06/05 00:26:22;;;;;;;5.00;4.60;;;22.60;64.70;;;;;;4974720;28;20056;-68
2022/06/05 00:29:09;;;;;;;5.25;4.80;;;22.60;64.70;;;;;;4974467;28;20093;-68
2022/06/05 00:31:42;;;;;;;5.43;4.82;;;22.60;64.80;;;;;;4974682;28;20477;-68
2022/06/05 00:34:08;;;;;;;5.22;4.60;;;22.60;65.00;;;;;;4973126;28;20022;-68
2022/06/05 00:36:42;;;;;;;5.47;4.72;;;22.60;64.90;;;;;;4972920;28;20036;-68
2022/06/05 00:39:14;;;;;;;5.15;4.63;;;22.60;65.00;;;;;;4974357;28;20030;-68
2022/06/05 00:41:53;;;;;;;5.28;4.78;;;22.60;65.20;;;;;;4974502;28;20034;-68
2022/06/05 00:44:31;;;;;;;6.57;4.63;;;22.60;65.00;;;;;;4972856;28;20031;-68
2022/06/05 00:46:57;;;;;;;7.30;4.30;;;22.60;65.00;;;;;;4972914;28;20078;-68
2022/06/05 00:49:23;;;;;;;4.72;4.30;;;22.60;65.10;;;;;;4974315;28;20102;-68
2022/06/05 00:51:48;;;;;;;4.63;4.07;;;22.60;65.20;;;;;;4957051;28;20039;-68
2022/06/05 00:54:14;;;;;;;6.82;4.68;;;22.50;65.20;;;;;;4974141;28;20027;-68
2022/06/05 00:56:40;;;;;;;5.20;4.20;;;22.60;65.20;;;;;;4974172;28;20026;-68
2022/06/05 00:59:06;;;;;;;5.03;4.63;;;22.60;65.20;;;;;;4972614;28;20042;-68
2022/06/05 01:01:32;;;;;;;4.90;4.50;;;22.60;65.20;;;;;;4957112;28;20031;-68
2022/06/05 01:04:01;;;;;;;9.50;4.55;;;22.60;65.20;;;;;;4972825;28;20034;-68
2022/06/05 01:06:28;;;;;;;4.47;4.07;;;22.60;65.40;;;;;;4957317;28;20022;-68
2022/06/05 01:08:54;;;;;;;4.65;4.22;;;22.50;65.30;;;;;;4973961;28;20027;-68
2022/06/05 01:11:46;;;;;;;6.78;4.25;;;22.60;65.40;;;;;;4973806;28;20387;-68
2022/06/05 01:14:17;;;;;;;4.80;4.40;;;22.60;65.50;;;;;;4957512;28;20023;-68
2022/06/05 01:16:46;;;;;;;4.93;4.05;;;22.50;65.40;;;;;;4972793;28;20015;-68
2022/06/05 01:19:43;;;;;;;5.18;4.65;;;22.50;65.50;;;;;;4973718;28;20109;-68
2022/06/05 01:22:39;;;;;;;4.32;3.92;;;22.50;65.40;;;;;;4973596;28;20082;-68
2022/06/05 01:25:33;;;;;;;4.18;3.80;;;22.50;65.50;;;;;;4957467;28;20074;-68
2022/06/05 01:28:02;;;;;;;4.80;4.30;;;22.50;65.60;;;;;;4972493;28;20023;-68
2022/06/05 01:30:27;;;;;;;5.10;4.60;;;22.50;65.60;;;;;;4972390;28;20033;-68
2022/06/05 01:32:59;;;;;;;4.25;3.95;;;22.50;65.60;;;;;;4940455;28;20105;-68
2022/06/05 01:35:41;;;;;;;4.90;4.57;;;22.50;65.50;;;;;;4956930;28;20374;-68
2022/06/05 01:38:14;;;;;;;5.75;4.07;;;22.50;65.50;;;;;;4972555;28;20094;-68
2022/06/05 01:40:48;;;;;;;4.68;4.38;;;22.50;65.60;;;;;;4973405;28;20046;-68
2022/06/05 01:43:25;;;;;;;4.72;4.25;;;22.50;65.60;;;;;;4957220;28;20022;-68
2022/06/05 01:45:52;;;;;;;6.15;4.40;;;22.50;65.70;;;;;;4956648;28;20030;-68
2022/06/05 01:48:23;;;;;;;4.53;4.15;;;22.50;65.70;;;;;;4973977;28;20018;-68
2022/06/05 01:50:52;;;;;;;4.57;4.18;;;22.50;65.70;;;;;;4977595;28;20023;-68
2022/06/05 01:53:27;;;;;;;5.38;4.20;;;22.50;65.60;;;;;;4976194;28;20072;-68
2022/06/05 01:56:00;;;;;;;6.85;4.22;;;22.50;65.70;;;;;;4976017;28;20119;-68
2022/06/05 01:58:33;;;;;;;4.88;4.38;;;22.50;65.70;;;;;;4976245;28;20030;-68
2022/06/05 02:00:59;;;;;;;4.50;4.20;;;22.50;65.70;;;;;;4960568;28;20034;-68
2022/06/05 02:03:28;;;;;;;5.82;4.50;;;22.40;65.60;;;;;;4960169;28;20469;-68
2022/06/05 02:06:02;;;;;;;7.45;4.20;;;22.40;65.70;;;;;;4976116;28;20028;-68
2022/06/05 02:08:51;;;;;;;6.80;4.20;;;22.40;65.80;;;;;;4960480;28;20396;-68
2022/06/05 02:11:20;;;;;;;5.72;4.30;;;22.40;65.80;;;;;;4975771;28;20030;-68
2022/06/05 02:13:46;;;;;;;7.82;3.88;;;22.40;65.80;;;;;;4960032;28;20453;-68
2022/06/05 02:16:12;;;;;;;4.68;4.20;;;22.40;65.80;;;;;;4992840;28;20022;-68
2022/06/05 02:18:38;;;;;;;4.40;4.10;;;22.40;65.80;;;;;;4995455;28;20033;-68
2022/06/05 02:21:03;;;;;;;4.53;4.13;;;22.40;65.80;;;;;;4995007;28;20026;-68
2022/06/05 02:23:32;;;;;;;6.15;4.20;;;22.40;65.90;;;;;;4964815;28;20101;-68
2022/06/05 02:25:58;;;;;;;4.68;4.28;;;22.40;65.80;;;;;;4959671;28;20436;-68
2022/06/05 02:28:23;;;;;;;5.55;4.28;;;22.40;65.90;;;;;;4959506;28;20106;-68
2022/06/05 02:31:05;;;;;;;5.57;3.88;;;22.40;65.90;;;;;;4975708;28;20070;-68
2022/06/05 02:33:46;;;;;;;5.95;3.97;;;22.40;65.80;;;;;;4975595;28;20023;-68
2022/06/05 02:36:22;;;;;;;4.18;3.88;;;22.40;66.00;;;;;;4975444;28;20474;-68
2022/06/05 02:39:06;;;;;;;4.68;4.22;;;22.40;66.00;;;;;;4975520;28;20511;-68
2022/06/05 02:41:55;;;;;;;4.93;3.80;;;22.40;65.90;;;;;;4975208;28;20019;-68
2022/06/05 02:44:39;;;;;;;4.82;3.80;;;22.40;66.00;;;;;;4975618;28;20046;-68
2022/06/05 02:47:16;;;;;;;5.35;4.20;;;22.40;66.10;;;;;;4976216;28;20054;-68
2022/06/05 02:49:55;;;;;;;5.07;4.35;;;22.40;66.00;;;;;;4976473;28;20490;-68
2022/06/05 02:52:21;;;;;;;7.35;4.05;;;22.40;66.10;;;;;;4975038;28;20082;-68
2022/06/05 02:55:06;;;;;;;6.22;4.22;;;22.30;66.10;;;;;;4958998;28;20026;-68
2022/06/05 02:57:32;;;;;;;4.50;4.07;;;22.40;66.10;;;;;;4975392;28;20034;-68
2022/06/05 02:59:57;;;;;;;4.13;3.72;;;22.30;66.10;;;;;;4975542;28;20077;-68
2022/06/05 03:05:08;;;;;;;4.57;4.18;;;22.30;66.10;;;;;;4975176;28;20119;-68
2022/06/05 03:07:33;;;;;;;5.53;4.15;;;22.40;66.20;;;;;;4958842;28;20105;-68
2022/06/05 03:09:59;;;;;;;4.50;4.20;;;22.30;66.20;;;;;;4975058;28;20098;-68
2022/06/05 03:12:25;;;;;;;4.38;4.07;;;22.30;67.20;;;;;;4975999;28;20393;-68
2022/06/05 03:14:50;;;;;;;5.57;4.00;;;22.30;66.10;;;;;;4974761;28;20458;-68
2022/06/05 03:17:16;;;;;;;6.57;4.75;;;22.30;66.20;;;;;;4975871;28;20109;-68
2022/06/05 03:19:42;;;;;;;5.18;4.35;;;22.30;66.10;;;;;;4975978;28;20496;-68
2022/06/05 03:22:08;;;;;;;4.30;3.85;;;22.30;66.20;;;;;;4974381;28;20437;-68
2022/06/05 03:24:34;;;;;;;4.10;3.80;;;22.30;66.20;;;;;;4958592;28;20054;-68
2022/06/05 03:26:59;;;;;;;4.60;4.20;;;22.30;66.10;;;;;;4974728;28;20027;-68
2022/06/05 03:29:25;;;;;;;4.60;4.20;;;22.30;66.10;;;;;;4975678;28;20023;-68
2022/06/05 03:31:51;;;;;;;4.95;4.45;;;22.30;66.10;;;;;;4975674;28;20034;-68
2022/06/05 03:34:17;;;;;;;4.95;4.55;;;22.30;66.10;;;;;;4975510;28;20085;-68
2022/06/05 03:36:44;;;;;;;4.60;4.20;;;22.30;66.20;;;;;;4974572;28;20022;-68
2022/06/05 03:39:10;;;;;;;6.13;5.03;;;22.30;66.20;;;;;;4975488;28;20045;-68
2022/06/05 03:41:36;;;;;;;9.40;4.93;;;22.30;66.20;;;;;;4975401;28;20031;-68
2022/06/05 03:44:01;;;;;;;5.00;4.55;;;22.30;66.20;;;;;;4975398;28;20090;-67
2022/06/05 03:46:27;;;;;;;5.55;4.70;;;22.30;66.20;;;;;;4975330;28;20055;-68
2022/06/05 03:48:53;;;;;;;5.55;4.47;;;22.30;66.20;;;;;;4975334;28;20488;-68
2022/06/05 03:51:20;;;;;;;5.38;4.60;;;22.20;66.10;;;;;;4975331;28;20031;-68
2022/06/05 03:53:46;;;;;;;4.72;4.32;;;22.20;66.20;;;;;;4974177;28;20031;-68
2022/06/05 03:56:16;;;;;;;5.13;4.70;;;22.20;66.10;;;;;;4975248;28;20034;-68
2022/06/05 03:58:42;;;;;;;5.13;4.72;;;22.30;66.20;;;;;;4974151;28;20027;-68
2022/06/05 04:01:10;;;;;;;5.25;4.75;;;22.30;66.30;;;;;;4958160;28;20157;-68
2022/06/05 04:03:36;;;;;;;5.03;4.63;;;22.20;66.20;;;;;;4974986;28;20394;-68
2022/06/05 04:06:07;;;;;;;4.93;4.53;;;22.20;66.30;;;;;;4973826;28;20019;-68
2022/06/05 04:08:34;;;;;;;5.43;4.93;;;22.20;66.40;;;;;;4973905;28;20478;-68
2022/06/05 04:11:05;;;;;;;4.68;4.38;;;22.20;66.40;;;;;;4974331;28;20081;-68
2022/06/05 04:13:31;;;;;;;5.60;4.33;;;22.20;66.40;;;;;;4973666;28;20030;-68
2022/06/05 04:15:57;;;;;;;4.38;4.03;;;22.20;66.50;;;;;;4974843;28;20046;-68
2022/06/05 04:18:22;;;;;;;4.75;4.35;;;22.20;66.50;;;;;;4973605;28;20066;-68
2022/06/05 04:20:48;;;;;;;5.97;4.70;;;22.20;66.50;;;;;;4974743;28;20027;-68
2022/06/05 04:23:14;;;;;;;4.57;4.20;;;22.20;66.60;;;;;;4974522;28;20055;-68
2022/06/05 04:25:43;;;;;;;4.82;4.32;;;22.20;67.70;;;;;;4974969;28;20097;-68
2022/06/05 04:28:09;;;;;;;5.07;4.20;;;22.20;66.60;;;;;;4974806;28;20023;-68
2022/06/05 04:30:36;;;;;;;5.25;4.30;;;22.20;66.70;;;;;;4973334;28;20085;-68
2022/06/05 04:33:02;;;;;;;4.57;4.18;;;22.20;66.70;;;;;;4974662;28;20097;-68
2022/06/05 04:35:28;;;;;;;4.60;4.20;;;22.20;66.70;;;;;;4956920;28;20119;-68
2022/06/05 04:37:53;;;;;;;4.53;4.10;;;22.20;66.70;;;;;;4974512;28;20031;-68
2022/06/05 04:40:19;;;;;;;4.20;3.90;;;22.20;66.60;;;;;;4974340;28;20387;-68
2022/06/05 04:42:45;;;;;;;4.40;4.00;;;22.20;66.70;;;;;;4974295;28;20077;-68
2022/06/05 04:45:11;;;;;;;4.68;4.22;;;22.20;66.70;;;;;;4974488;28;20031;-68
2022/06/05 04:47:36;;;;;;;4.97;4.47;;;22.20;66.70;;;;;;4974085;28;20049;-68
2022/06/05 04:50:02;;;;;;;5.95;4.72;;;22.20;66.80;;;;;;4973045;28;20406;-68
2022/06/05 04:52:28;;;;;;;4.85;4.43;;;22.20;66.70;;;;;;4974250;28;20111;-68
2022/06/05 04:54:54;;;;;;;5.13;4.70;;;22.20;66.70;;;;;;4974199;28;20102;-68
2022/06/05 04:57:19;;;;;;;4.57;4.18;;;22.20;66.80;;;;;;4974090;28;20113;-68
2022/06/05 04:59:45;;;;;;;4.85;4.32;;;22.20;66.70;;;;;;4974105;28;20027;-68
2022/06/05 05:02:10;;;;;;;5.18;4.07;;;22.20;66.70;;;;;;4974069;28;20027;-68
2022/06/05 05:04:36;;;;;;;6.38;4.38;;;22.20;66.80;;;;;;4972006;28;20026;-67
2022/06/05 05:07:03;;;;;;;7.07;4.57;;;22.20;66.90;;;;;;4973429;28;20501;-68
2022/06/05 05:09:29;;;;;;;4.10;3.72;;;22.20;66.90;;;;;;4973470;28;20069;-68
2022/06/05 05:11:55;;;;;;;6.35;4.30;;;22.20;66.90;;;;;;4972777;28;20027;-68
2022/06/05 05:14:20;;;;;;;4.80;4.35;;;22.20;67.00;;;;;;4973025;28;20027;-68
2022/06/05 05:16:46;;;;;;;6.55;3.83;;;22.10;66.90;;;;;;4973221;28;20030;-68
2022/06/05 05:19:12;;;;;;;5.93;4.05;;;22.20;67.10;;;;;;4971923;28;20410;-68
2022/06/05 05:21:37;;;;;;;13.18;4.00;;;22.20;67.10;;;;;;4973369;28;20493;-68
2022/06/05 05:24:04;;;;;;;6.57;4.07;;;22.10;67.00;;;;;;4953062;28;20023;-68
2022/06/05 05:26:31;;;;;;;17.52;4.93;;;22.20;67.20;;;;;;4953778;29;20031;-68
2022/06/05 05:28:57;;;;;;;7.22;3.65;;;22.20;67.20;;;;;;4954010;29;20023;-68
2022/06/05 05:31:28;;;;;;;6.90;4.22;;;22.20;67.20;;;;;;4953131;29;20027;-68
2022/06/05 05:33:53;;;;;;;5.63;3.80;;;22.20;67.10;;;;;;4952953;29;20430;-68
2022/06/05 05:36:20;;;;;;;6.95;4.15;;;22.20;67.20;;;;;;4954194;29;20037;-68
2022/06/05 05:44:14;;;;;;;8.18;3.95;;;22.20;67.10;;;;;;4952935;29;20035;-68
2022/06/05 05:46:41;;;;;;;4.68;4.15;;;22.20;67.10;;;;;;4954099;29;20047;-68
2022/06/05 05:49:07;;;;;;;8.48;3.78;;;22.20;67.20;;;;;;4954045;29;20019;-68
2022/06/05 05:51:33;;;;;;;5.38;3.72;;;22.20;67.10;;;;;;4953998;29;20401;-68
2022/06/05 05:53:59;;;;;;;6.32;4.15;;;22.20;67.20;;;;;;4954290;29;20060;-68
2022/06/05 05:56:24;;;;;;;4.20;3.80;;;22.20;67.20;;;;;;4953945;29;20054;-68
2022/06/05 05:58:50;;;;;;;5.40;3.50;;;22.20;67.20;;;;;;4954119;29;20037;-68
2022/06/05 06:01:16;;;;;;;5.78;4.45;;;22.20;67.20;;;;;;4954082;29;20035;-68
2022/06/05 06:03:41;;;;;;;5.25;3.85;;;22.20;67.20;;;;;;4953978;29;20525;-68
2022/06/05 06:06:07;;;;;;;5.45;3.60;;;22.10;67.20;;;;;;4954233;29;20023;-68
2022/06/05 06:08:33;;;;;;;5.07;3.70;;;22.10;67.20;;;;;;4953996;29;20486;-68
2022/06/05 06:10:58;;;;;;;3.97;3.50;;;22.10;67.20;;;;;;4952045;29;20030;-68
2022/06/05 06:13:24;;;;;;;3.92;3.63;;;22.10;67.20;;;;;;4950990;29;20027;-68
2022/06/05 06:15:50;;;;;;;4.95;3.63;;;22.10;67.20;;;;;;4965993;28;20038;-68
2022/06/05 06:18:16;;;;;;;4.15;3.75;;;22.10;67.20;;;;;;4970197;28;20035;-68
2022/06/05 06:20:42;;;;;;;9.98;4.03;;;22.10;67.20;;;;;;4970245;28;20034;-68
2022/06/05 06:23:07;;;;;;;3.67;3.38;;;22.10;67.30;;;;;;4970306;28;20544;-67
2022/06/05 06:25:33;;;;;;;4.97;3.40;;;22.10;67.30;;;;;;4972434;28;20023;-68
2022/06/05 06:27:58;;;;;;;3.72;3.30;;;22.10;67.30;;;;;;4955944;28;20030;-68
2022/06/05 06:30:24;;;;;;;4.07;3.42;;;22.10;67.30;;;;;;4972876;28;20018;-68
2022/06/05 06:32:50;;;;;;;5.10;3.22;;;22.10;67.30;;;;;;4972167;28;20019;-68
2022/06/05 06:35:16;;;;;;;4.50;3.83;;;22.10;67.20;;;;;;4974702;28;20147;-68
2022/06/05 06:37:41;;;;;;;3.63;3.22;;;22.10;67.30;;;;;;4975542;28;20031;-68
2022/06/05 06:40:07;;;;;;;3.95;3.30;;;22.10;67.20;;;;;;4976890;28;20039;-68
2022/06/05 06:42:33;;;;;;;3.47;3.15;;;22.10;67.30;;;;;;4976529;28;20023;-68
2022/06/05 06:44:59;;;;;;;4.07;3.40;;;22.10;67.30;;;;;;4976204;28;20528;-68
2022/06/05 06:47:24;;;;;;;5.35;3.47;;;22.10;67.30;;;;;;4976423;28;20085;-67
2022/06/05 06:49:50;;;;;;;3.70;3.40;;;22.10;67.20;;;;;;4976580;28;20102;-68
2022/06/05 06:52:16;;;;;;;3.65;3.28;;;22.10;67.30;;;;;;4975310;28;20019;-68
2022/06/05 06:54:41;;;;;;;5.68;3.72;;;22.10;67.30;;;;;;4976198;28;20035;-68
2022/06/05 06:57:07;;;;;;;7.45;3.53;;;22.10;67.30;;;;;;4975105;28;20035;-68
2022/06/05 06:59:33;;;;;;;3.40;3.10;;;22.10;67.30;;;;;;4958803;28;20023;-68
2022/06/05 07:01:59;;;;;;;3.15;2.95;;;22.10;67.30;;;;;;4973288;28;20022;-68
2022/06/05 07:04:24;;;;;;;3.65;3.30;;;22.10;67.30;;;;;;4972589;28;20525;-68
2022/06/05 07:06:50;;;;;;;4.88;3.45;;;22.00;67.30;;;;;;4974558;28;20030;-68
2022/06/05 07:09:16;;;;;;;3.75;3.45;;;22.00;67.30;;;;;;4972906;28;20029;-68
2022/06/05 07:11:42;;;;;;;3.92;3.10;;;22.00;67.30;;;;;;4973356;28;20097;-68
2022/06/05 07:14:09;;;;;;;4.63;2.90;;;22.00;67.30;;;;;;4973116;28;20468;-68
2022/06/05 07:16:35;;;;;;;3.90;3.22;;;22.00;67.30;;;;;;4973366;28;20023;-68
2022/06/05 07:19:00;;;;;;;5.75;3.60;;;22.10;67.30;;;;;;4973400;28;20093;-67
2022/06/05 07:21:27;;;;;;;6.57;3.10;;;22.00;67.30;;;;;;4974595;28;20502;-68
2022/06/05 07:23:56;;;;;;;4.80;3.15;;;22.00;64.10;;;;;;4955884;28;20026;-68
2022/06/05 07:26:23;;;;;;;5.03;3.40;;;21.80;63.00;;;;;;4957150;28;20072;-68
2022/06/05 07:28:49;;;;;;;4.40;2.47;;;21.50;61.50;;;;;;4973028;28;20023;-67
2022/06/05 07:31:15;;;;;;;6.43;2.45;;;21.30;61.10;;;;;;4974604;28;20025;-67
2022/06/05 07:33:44;;;;;;;5.25;3.00;;;21.20;61.10;;;;;;4974168;28;20054;-67
2022/06/05 07:36:12;;;;;;;2.50;2.30;;;21.10;60.70;;;;;;4957456;28;20034;-67
2022/06/05 07:38:38;;;;;;;4.70;2.60;;;21.10;60.60;;;;;;4957027;28;20034;-68
2022/06/05 07:41:05;;;;;;;4.53;2.35;;;21.00;60.30;;;;;;4974307;28;20026;-69
2022/06/05 07:43:31;;;;;;;3.08;1.92;;;20.90;59.90;;;;;;4972582;28;20489;-68
2022/06/05 07:45:59;;;;;;;3.45;1.83;;;20.90;60.10;;;;;;4973841;28;20046;-69
2022/06/05 07:48:25;;;;;;;3.25;1.50;;;20.90;59.60;;;;;;4972894;28;20054;-68
2022/06/05 07:56:34;;;;;;;4.63;1.92;;;20.90;59.80;;;;;;4972345;28;20038;-68
2022/06/05 07:59:00;;;;;;;3.10;1.65;;;20.90;59.50;;;;;;4973279;28;20034;-68
2022/06/05 08:01:26;;;;;;;4.18;1.85;;;20.80;59.80;;;;;;4972393;28;20474;-68
2022/06/05 08:03:52;;;;;;;5.75;2.03;;;20.70;59.80;;;;;;4972160;28;20035;-68
2022/06/05 08:06:18;;;;;;;2.15;1.52;;;20.70;59.90;;;;;;4973213;28;20047;-68
2022/06/05 08:08:44;;;;;;;2.40;1.40;;;20.70;60.10;;;;;;4972162;28;20062;-67
2022/06/05 08:11:10;;;;;;;3.22;1.40;;;20.70;60.30;;;;;;4973912;28;20031;-68
2022/06/05 08:13:35;;;;;;;3.60;1.45;;;20.70;59.90;;;;;;4971920;28;20402;-67
2022/06/05 08:16:02;;;;;;;3.33;1.30;;;20.60;59.80;;;;;;4973585;28;20031;-67
2022/06/05 08:18:27;;;;;;;4.20;1.30;;;20.60;60.00;;;;;;4973457;28;20026;-68
2022/06/05 08:20:53;;;;;;;3.22;1.50;;;20.60;59.90;;;;;;4973308;28;20029;-67
2022/06/05 08:23:19;;;;;;;1.60;1.20;;;20.50;59.70;;;;;;4973370;28;20029;-67
2022/06/05 08:25:45;;;;;;;2.85;0.95;;;20.50;59.90;;;;;;4972090;28;20023;-67
2022/06/05 08:28:11;;;;;;;6.30;1.30;;;20.50;59.80;;;;;;4972919;28;20117;-67
2022/06/05 08:30:38;;;;;;;2.20;0.95;;;20.50;60.10;;;;;;4955940;28;20106;-67
2022/06/05 08:33:04;;;;;;;3.05;1.10;;;20.50;60.10;;;;;;4971908;28;20015;-67
2022/06/05 08:35:29;;;;;;;4.38;1.55;;;20.50;60.00;;;;;;4973108;28;20038;-68
2022/06/05 08:43:33;;;;;;;3.40;0.90;;;20.40;59.90;;;;;;4957934;28;20042;-67
2022/06/05 08:46:02;;;;;;;2.83;1.10;;;20.40;59.80;;;;;;4971522;28;20089;-68
2022/06/05 08:48:32;;;;;;;1.50;0.90;;;20.40;59.70;;;;;;4971638;28;20030;-68
2022/06/05 08:51:33;;;;;;;5.45;1.58;;;20.40;60.00;;;;;;4955842;28;20556;-67
2022/06/05 08:54:21;;;;;;;3.72;1.23;;;20.30;60.00;;;;;;4969470;28;20039;-67
2022/06/05 08:56:54;;;;;;;3.05;0.90;;;20.30;60.10;;;;;;4971363;28;20022;-67
2022/06/05 08:59:26;;;;;;;2.50;1.02;;;20.30;60.10;;;;;;4969589;28;20018;-68
2022/06/05 09:02:13;;;;;;;4.03;1.00;;;20.40;59.90;;;;;;4970584;28;20054;-67
2022/06/05 09:04:44;;;;;;;2.83;1.00;;;20.30;59.50;;;;;;4972163;28;20034;-67
2022/06/05 09:07:12;;;;;;;2.55;1.23;;;20.30;59.70;;;;;;4971325;28;20157;-67
2022/06/05 09:09:45;;;;;;;3.13;1.10;;;20.30;59.20;;;;;;4955350;28;20410;-67
2022/06/05 09:12:20;;;;;;;6.30;1.20;;;20.20;59.30;;;;;;4956139;28;20046;-67
2022/06/05 09:14:54;;;;;;;7.35;1.30;;;20.20;59.40;;;;;;4953673;28;20041;-67
2022/06/05 09:17:20;;;;;;;6.88;1.42;;;20.20;59.60;;;;;;4954968;28;20054;-67
2022/06/05 09:19:47;;;;;;;5.50;1.30;;;20.20;59.50;;;;;;4969062;28;20046;-67
2022/06/05 09:22:20;;;;;;;4.75;1.48;;;20.30;60.10;;;;;;4955311;28;20085;-67
2022/06/05 09:25:05;;;;;;;2.67;1.00;;;20.20;60.00;;;;;;4971931;28;20557;-67
2022/06/05 09:27:41;;;;;;;4.50;1.13;;;20.30;60.00;;;;;;4970749;28;20146;-67
2022/06/05 09:30:35;;;;;;;4.85;1.20;;;20.30;59.90;;;;;;4954562;28;20847;-67
2022/06/05 09:33:15;;;;;;;5.13;1.10;;;20.30;60.00;;;;;;4956485;28;20392;-67
2022/06/05 09:36:16;;;;;;;4.60;0.90;;;20.20;60.10;;;;;;4970918;28;20054;-67
2022/06/05 09:38:50;;;;;;;4.65;1.10;;;20.20;59.50;;;;;;4953311;28;20023;-67
2022/06/05 09:41:25;;;;;;;5.80;1.67;;;20.20;59.40;;;;;;4936856;28;20502;-67
2022/06/05 09:44:18;;;;;;;5.68;1.40;;;20.30;60.20;;;;;;4952498;28;20605;-67
2022/06/05 09:46:47;;;;;;;8.05;1.77;;;20.40;61.00;;;;;;4968048;28;20078;-67
2022/06/05 09:49:19;;;;;;;4.85;1.20;;;20.40;61.10;;;;;;4969711;28;20035;-67
2022/06/05 09:51:45;;;;;;;5.13;1.42;;;20.50;60.70;;;;;;4953596;28;20078;-67
2022/06/05 09:54:13;;;;;;;3.47;1.58;;;20.50;60.60;;;;;;4969322;28;20460;-67
2022/06/05 10:00:14;;;;;;;2.70;0.80;;;20.50;59.50;;;;;;4968710;28;20122;-67
2022/06/05 10:02:41;;;;;;;5.95;0.70;;;20.50;58.60;;;;;;4956772;28;20119;-67
2022/06/05 10:05:32;;;;;;;1.30;0.73;;;20.50;58.20;;;;;;4937677;28;20392;-67
2022/06/05 10:08:10;;;;;;;3.10;1.00;;;20.40;57.70;;;;;;4938565;28;20148;-67
2022/06/05 10:10:38;;;;;;;3.28;0.80;;;20.40;57.70;;;;;;4953432;28;20022;-67
2022/06/05 10:13:20;;;;;;;3.22;0.70;;;20.40;56.90;;;;;;4957186;28;20026;-67
2022/06/05 10:15:54;;;;;;;4.22;0.60;;;20.30;56.60;;;;;;4973261;28;20023;-67
2022/06/05 10:18:49;;;;;;;0.70;0.70;;;20.30;56.50;;;;;;4974793;28;20055;-67
2022/06/05 10:21:14;;;;;;;3.15;0.60;;;20.30;55.50;;;;;;4975414;28;20027;-67
2022/06/05 10:23:48;;;;;;;1.45;0.63;;;20.20;55.60;;;;;;4974115;28;20046;-67
2022/06/05 10:26:23;;;;;;;3.28;0.70;;;20.20;55.00;;;;;;4975447;28;20154;-67
2022/06/05 10:28:51;;;;;;;1.08;0.30;;;20.20;54.90;;;;;;4973219;28;20045;-67
2022/06/05 10:31:20;;;;;;;1.50;0.57;;;20.20;55.00;;;;;;4958382;28;20022;-67
2022/06/05 10:34:07;;;;;;;2.17;0.60;;;20.30;55.60;;;;;;4973982;28;20037;-67
2022/06/05 10:36:58;;;;;;;2.28;0.60;;;20.20;54.70;;;;;;4974442;28;20049;-67
2022/06/05 10:39:49;;;;;;;2.20;0.50;;;20.20;54.80;;;;;;4973899;28;20030;-67
2022/06/05 10:42:26;;;;;;;1.75;0.50;;;20.20;54.40;;;;;;4973643;28;20022;-67
2022/06/05 10:44:51;;;;;;;1.30;0.50;;;20.20;54.80;;;;;;4973092;28;20035;-67
2022/06/05 10:47:53;;;;;;;1.55;0.70;;;20.10;54.80;;;;;;4975109;28;20576;-67
2022/06/05 10:50:18;;;;;;;0.95;0.50;;;20.10;54.90;;;;;;4974055;28;20019;-67
2022/06/05 10:53:21;;;;;;;0.88;0.50;;;20.10;55.10;;;;;;4974929;28;20516;-67
2022/06/05 10:56:04;;;;;;;1.55;0.40;;;20.10;54.90;;;;;;4973459;28;20509;-67
2022/06/05 10:58:53;;;;;;;1.25;0.50;;;20.10;54.40;;;;;;4973363;28;20015;-67
2022/06/05 11:01:35;;;;;;;3.78;0.57;;;20.10;54.50;;;;;;4972648;28;20023;-67
2022/06/05 11:04:22;;;;;;;1.85;0.50;;;20.10;54.60;;;;;;4973629;28;20027;-67
2022/06/05 11:07:17;;;;;;;1.08;0.50;;;20.00;54.40;;;;;;4973073;28;20035;-67
2022/06/05 11:10:05;;;;;;;1.17;0.40;;;20.00;54.40;;;;;;4973448;28;20021;-67
2022/06/05 11:15:57;;;;;;;1.48;0.50;;;20.00;54.10;;;;;;4959136;28;20097;-67
2022/06/05 11:18:27;;;;;;;1.00;0.65;;;19.90;54.40;;;;;;4957468;28;20019;-67
2022/06/05 11:20:59;;;;;;;1.35;0.55;;;19.90;55.00;;;;;;4955804;28;20548;-67
2022/06/05 11:23:40;;;;;;;2.28;0.60;;;19.90;55.20;;;;;;4956205;28;20043;-67
2022/06/05 11:26:41;;;;;;;3.20;0.55;;;20.00;55.50;;;;;;4957022;28;20039;-67
2022/06/05 11:29:25;;;;;;;0.60;0.60;;;20.00;54.20;;;;;;4956037;28;20026;-67
2022/06/05 11:32:17;;;;;;;1.42;0.63;;;19.90;53.90;;;;;;4970735;28;20023;-67
2022/06/05 11:35:17;;;;;;;0.60;0.50;;;19.90;54.10;;;;;;4958381;28;20039;-67
2022/06/05 11:37:56;;;;;;;2.83;0.60;;;20.00;54.60;;;;;;4971669;28;20429;-67
2022/06/05 11:40:45;;;;;;;1.25;0.63;;;20.00;54.70;;;;;;4954401;28;20532;-67
2022/06/05 11:43:30;;;;;;;2.88;0.75;;;20.00;54.40;;;;;;4955052;28;20038;-67
2022/06/05 11:46:10;;;;;;;0.95;0.30;;;20.00;54.40;;;;;;4954651;28;20125;-67
2022/06/05 11:49:05;;;;;;;2.38;0.50;;;20.00;54.50;;;;;;4970452;28;20033;-67
2022/06/05 11:51:46;;;;;;;1.20;0.50;;;20.00;54.20;;;;;;4955923;28;20441;-67
2022/06/05 11:54:21;;;;;;;1.65;0.70;;;20.00;54.20;;;;;;4972506;28;20026;-67
2022/06/05 11:57:14;;;;;;;3.00;0.80;;;20.00;54.10;;;;;;4956616;28;20097;-67
2022/06/05 11:59:54;;;;;;;;;;;20.00;54.30;;;;;;4972715;28;20109;-67
2022/06/05 12:02:48;;;;;;;0.70;0.32;;;20.00;54.70;;;;;;4973340;28;19906;-67
2022/06/05 12:05:32;;;;;;;1.70;0.50;;;20.00;54.70;;;;;;4972638;28;20485;-67
2022/06/05 12:08:04;;;;;;;3.25;0.60;;;19.90;55.00;;;;;;4972723;28;20030;-67
2022/06/05 12:10:30;;;;;;;5.87;0.90;;;19.90;56.60;;;;;;4973626;28;20054;-68
2022/06/05 12:13:21;;;;;;;5.93;0.65;;;19.80;58.00;;;;;;4972236;28;20299;-68
2022/06/05 12:15:57;;;;;;;4.22;0.57;;;19.90;57.80;;;;;;4973381;28;20038;-68
2022/06/05 12:18:47;;;;;;;0.40;0.40;;;20.00;57.60;;;;;;4972144;28;20553;-68
2022/06/05 12:21:49;;;;;;;2.08;0.50;;;20.00;57.50;;;;;;4957213;28;20062;-67
2022/06/05 12:24:18;;;;;;;0.97;0.43;;;20.00;57.60;;;;;;4971307;28;20043;-68
2022/06/05 12:26:54;;;;;;;3.15;0.47;;;20.10;58.00;;;;;;4973330;28;20022;-68
2022/06/05 12:29:31;;;;;;;2.30;0.50;;;20.10;58.30;;;;;;4972093;28;20367;-68
2022/06/05 12:32:01;;;;;;;2.40;0.40;;;20.10;58.30;;;;;;4955788;28;20027;-68
2022/06/05 12:34:29;;;;;;;2.70;0.45;;;20.20;58.50;;;;;;4971606;28;20081;-68
2022/06/05 12:37:18;;;;;;;1.42;0.60;;;20.20;58.70;;;;;;4971972;28;20027;-68
2022/06/05 12:39:46;;;;;;;1.40;0.38;;;20.20;58.90;;;;;;4958463;28;20029;-68
2022/06/05 12:42:25;;;;;;;2.33;0.50;;;20.20;58.90;;;;;;4971790;28;20109;-68
2022/06/05 12:44:59;;;;;;;1.23;0.55;;;20.20;59.00;;;;;;4971716;28;20026;-68
2022/06/05 12:47:40;;;;;;;0.75;0.22;;;20.20;59.20;;;;;;4954157;28;20038;-68
2022/06/05 12:50:19;;;;;;;2.15;0.50;;;20.20;59.20;;;;;;4972325;28;20023;-68
2022/06/05 12:53:00;;;;;;;2.28;0.50;;;20.30;59.40;;;;;;4956074;28;20027;-68
2022/06/05 12:55:30;;;;;;;1.17;0.40;;;20.30;59.50;;;;;;4954392;28;20027;-68
2022/06/05 12:58:02;;;;;;;1.30;0.47;;;20.30;59.50;;;;;;4972815;28;20074;-68
2022/06/05 13:01:05;;;;;;;1.40;0.40;;;20.30;59.60;;;;;;4971697;28;20050;-68
2022/06/05 13:03:45;;;;;;;3.80;0.55;;;20.30;59.70;;;;;;4971262;28;20172;-67
2022/06/05 13:06:18;;;;;;;1.05;0.50;;;20.30;59.80;;;;;;4956856;28;20066;-68
2022/06/05 13:08:48;;;;;;;1.00;0.40;;;20.30;59.90;;;;;;4955607;28;20030;-68
2022/06/05 13:11:20;;;;;;;1.63;0.40;;;20.40;60.00;;;;;;4970855;28;20078;-68
2022/06/05 13:13:58;;;;;;;1.87;0.90;;;20.40;60.10;;;;;;4972650;28;20118;-68
2022/06/05 13:16:37;;;;;;;0.70;0.40;;;20.40;60.10;;;;;;4956363;28;20031;-68
2022/06/05 13:19:28;;;;;;;2.05;0.50;;;20.40;60.10;;;;;;4970112;28;20030;-68
2022/06/05 13:22:06;;;;;;;2.25;0.40;;;20.40;60.20;;;;;;4971281;28;20026;-68
2022/06/05 13:24:39;;;;;;;0.95;0.47;;;20.40;60.20;;;;;;4970932;28;20499;-68
2022/06/05 13:27:36;;;;;;;0.80;0.63;;;20.40;60.30;;;;;;4955253;28;20026;-68
2022/06/05 13:30:02;;;;;;;1.20;0.50;;;20.50;60.40;;;;;;4971075;28;20484;-68
2022/06/05 13:32:57;;;;;;;1.13;0.63;;;20.40;60.40;;;;;;4972139;28;20101;-67
2022/06/05 13:35:53;;;;;;;2.17;0.52;;;20.50;60.50;;;;;;4970658;28;20562;-68
2022/06/05 13:38:25;;;;;;;1.00;0.63;;;20.50;60.60;;;;;;4969615;28;20034;-68
2022/06/05 13:40:56;;;;;;;;;;;20.50;60.50;;;;;;4971372;28;20405;-68